Time;durP1;ratioP1;P1;durP2;ratioP2;P2;SDS_P1;SDS_P2;PMS_P1;PMS_P2;Temp;Humidity;BMP_temperature;BMP_pressure;BME280_temperature;BME280_humidity;BME280_pressure;Samples;Min_cycle;Max_cycle;Signal;HPM_P1;HPM_P2
2020/12/24 00:02:21;;;;;;;72.47;40.90;;;;;;;;;;4997161;28;20564;-80
2020/12/24 00:04:46;;;;;;;61.97;36.43;;;;;;;;;;5012151;28;20189;-79
2020/12/24 00:07:12;;;;;;;41.50;25.70;;;;;;;;;;4996380;28;20212;-79
2020/12/24 00:09:37;;;;;;;41.57;26.20;;;;;;;;;;4975675;28;20645;-79
2020/12/24 00:12:03;;;;;;;52.07;31.77;;;;;;;;;;4985074;28;20716;-80
2020/12/24 00:14:28;;;;;;;43.13;26.40;;;;;;;;;;4993137;28;20197;-79
2020/12/24 00:16:53;;;;;;;57.50;34.70;;;;;;;;;;4992932;28;20214;-79
2020/12/24 00:19:19;;;;;;;51.67;32.53;;;;;;;;;;4992728;28;20169;-79
2020/12/24 00:21:44;;;;;;;40.73;25.47;;;;;;;;;;4993231;28;20212;-79
2020/12/24 00:24:10;;;;;;;43.30;28.23;;;;;;;;;;4992700;28;20576;-80
2020/12/24 00:26:35;;;;;;;45.67;33.03;;;;;;;;;;4993086;28;20624;-80
2020/12/24 00:29:06;;;;;;;41.20;28.20;;;;;;;;;;4993218;28;20502;-79
2020/12/24 00:31:32;;;;;;;41.93;30.03;;;;;;;;;;4992966;28;20189;-82
2020/12/24 00:33:57;;;;;;;39.07;28.77;;;;;;;;;;4992958;28;20170;-79
2020/12/24 00:36:22;;;;;;;39.20;28.50;;;;;;;;;;4992777;28;20205;-80
2020/12/24 00:38:48;;;;;;;71.33;40.73;;;;;;;;;;4992489;28;20178;-80
2020/12/24 00:41:13;;;;;;;47.87;30.10;;;;;;;;;;4991322;28;20181;-79
2020/12/24 00:43:38;;;;;;;42.83;29.97;;;;;;;;;;4992813;28;20162;-79
2020/12/24 00:46:04;;;;;;;36.13;26.70;;;;;;;;;;4992531;28;20257;-80
2020/12/24 00:48:29;;;;;;;38.10;28.13;;;;;;;;;;4991997;28;20173;-80
2020/12/24 00:50:54;;;;;;;38.67;27.33;;;;;;;;;;4990533;28;20540;-79
2020/12/24 00:53:20;;;;;;;33.93;24.73;;;;;;;;;;4992703;28;20172;-79
2020/12/24 00:55:45;;;;;;;35.60;24.97;;;;;;;;;;4991219;28;20206;-80
2020/12/24 00:58:10;;;;;;;36.87;26.87;;;;;;;;;;4990460;28;20213;-80
2020/12/24 01:00:36;;;;;;;35.23;26.17;;;;;;;;;;4990385;28;20237;-80
2020/12/24 01:03:01;;;;;;;38.30;27.97;;;;;;;;;;4990856;28;20258;-80
2020/12/24 01:05:26;;;;;;;35.43;26.23;;;;;;;;;;4992433;28;20166;-79
2020/12/24 01:07:52;;;;;;;35.67;25.17;;;;;;;;;;4994904;28;20634;-79
2020/12/24 01:10:17;;;;;;;35.73;26.17;;;;;;;;;;4995609;28;20252;-79
2020/12/24 01:12:42;;;;;;;41.97;30.63;;;;;;;;;;4995854;28;20613;-79
2020/12/24 01:15:09;;;;;;;39.73;28.93;;;;;;;;;;4995896;28;20174;-80
2020/12/24 01:17:35;;;;;;;46.23;31.80;;;;;;;;;;4996210;28;20202;-79
2020/12/24 01:20:00;;;;;;;38.00;26.47;;;;;;;;;;4995707;28;20252;-79
2020/12/24 01:22:25;;;;;;;41.33;28.83;;;;;;;;;;4995631;28;20178;-80
2020/12/24 01:24:51;;;;;;;39.20;27.47;;;;;;;;;;4995914;28;20174;-79
2020/12/24 01:27:16;;;;;;;35.33;26.13;;;;;;;;;;4995616;28;20527;-79
2020/12/24 01:29:41;;;;;;;34.20;26.13;;;;;;;;;;4995604;28;20170;-79
2020/12/24 01:32:07;;;;;;;44.60;30.23;;;;;;;;;;4995509;28;20183;-83
2020/12/24 01:34:32;;;;;;;44.13;30.93;;;;;;;;;;4995709;28;20174;-80
2020/12/24 01:37:01;;;;;;;35.67;25.60;;;;;;;;;;4995689;28;20221;-80
2020/12/24 01:39:27;;;;;;;37.70;26.23;;;;;;;;;;4995916;28;20174;-80
2020/12/24 01:41:52;;;;;;;37.37;25.43;;;;;;;;;;4995710;28;20173;-80
2020/12/24 01:44:18;;;;;;;40.50;26.40;;;;;;;;;;4995602;28;20185;-80
2020/12/24 01:46:43;;;;;;;41.30;27.87;;;;;;;;;;4995220;28;20178;-79
2020/12/24 01:49:08;;;;;;;54.73;31.97;;;;;;;;;;4995802;28;20170;-81
2020/12/24 01:51:34;;;;;;;34.00;23.17;;;;;;;;;;4995561;28;20524;-80
2020/12/24 01:53:59;;;;;;;39.27;25.20;;;;;;;;;;4995557;28;20189;-80
2020/12/24 01:56:25;;;;;;;65.97;36.67;;;;;;;;;;4995656;28;20182;-79
2020/12/24 01:58:52;;;;;;;62.27;35.07;;;;;;;;;;4995291;28;20177;-80
2020/12/24 02:01:17;;;;;;;40.73;27.03;;;;;;;;;;4995296;28;20229;-79
2020/12/24 02:03:43;;;;;;;48.70;29.43;;;;;;;;;;4994972;28;20192;-79
2020/12/24 02:06:09;;;;;;;24.43;17.70;;;;;;;;;;4995312;28;20170;-79
2020/12/24 02:08:34;;;;;;;26.33;18.00;;;;;;;;;;4995130;28;20181;-79
2020/12/24 02:11:00;;;;;;;23.33;17.20;;;;;;;;;;4995052;28;20221;-79
2020/12/24 02:13:25;;;;;;;25.53;18.73;;;;;;;;;;4995276;28;20173;-80
2020/12/24 02:15:51;;;;;;;22.23;16.57;;;;;;;;;;4994378;28;20170;-79
2020/12/24 02:18:16;;;;;;;29.27;20.30;;;;;;;;;;4994673;28;20288;-80
2020/12/24 02:20:45;;;;;;;23.30;17.97;;;;;;;;;;4994598;28;20253;-81
2020/12/24 02:23:10;;;;;;;28.83;20.03;;;;;;;;;;4995018;28;20539;-79
2020/12/24 02:25:36;;;;;;;22.43;17.43;;;;;;;;;;4994689;28;20169;-80
2020/12/24 02:28:02;;;;;;;22.00;16.40;;;;;;;;;;4994397;28;20585;-80
2020/12/24 02:30:27;;;;;;;18.13;13.83;;;;;;;;;;4994430;28;20193;-80
2020/12/24 02:32:53;;;;;;;21.97;15.67;;;;;;;;;;4994416;28;20174;-79
2020/12/24 02:35:18;;;;;;;25.97;18.97;;;;;;;;;;4994622;28;20177;-79
2020/12/24 02:37:43;;;;;;;22.80;16.17;;;;;;;;;;4994406;28;20213;-80
2020/12/24 02:40:09;;;;;;;23.13;17.33;;;;;;;;;;4995012;28;20178;-79
2020/12/24 02:42:34;;;;;;;22.80;17.83;;;;;;;;;;4994232;28;20528;-79
2020/12/24 02:45:00;;;;;;;22.10;16.23;;;;;;;;;;4994555;28;20178;-79
2020/12/24 02:47:25;;;;;;;17.80;14.30;;;;;;;;;;4994213;28;20186;-80
2020/12/24 02:49:50;;;;;;;20.33;14.67;;;;;;;;;;4994135;28;20170;-79
2020/12/24 02:52:16;;;;;;;24.43;15.80;;;;;;;;;;4994230;28;20175;-79
2020/12/24 02:54:41;;;;;;;23.00;16.67;;;;;;;;;;4994319;28;20256;-80
2020/12/24 02:57:06;;;;;;;23.97;16.43;;;;;;;;;;4994393;28;20197;-80
2020/12/24 02:59:32;;;;;;;18.67;13.40;;;;;;;;;;4994284;28;20178;-79
2020/12/24 03:01:57;;;;;;;17.10;13.47;;;;;;;;;;4994265;28;20225;-80
2020/12/24 03:04:23;;;;;;;17.27;13.43;;;;;;;;;;4993851;28;20216;-80
2020/12/24 03:06:48;;;;;;;16.33;13.43;;;;;;;;;;4994021;28;20178;-80
2020/12/24 03:09:13;;;;;;;16.37;12.73;;;;;;;;;;4994008;28;20177;-79
2020/12/24 03:11:43;;;;;;;17.80;13.43;;;;;;;;;;4993667;28;20185;-79
2020/12/24 03:14:09;;;;;;;19.80;15.33;;;;;;;;;;4994236;28;20201;-80
2020/12/24 03:16:34;;;;;;;20.47;13.70;;;;;;;;;;4993777;28;20216;-79
2020/12/24 03:18:59;;;;;;;17.23;13.20;;;;;;;;;;4993858;28;20170;-79
2020/12/24 03:21:25;;;;;;;17.43;13.93;;;;;;;;;;4993732;28;20177;-80
2020/12/24 03:23:50;;;;;;;16.10;13.07;;;;;;;;;;4993723;28;20174;-80
2020/12/24 03:26:15;;;;;;;23.07;15.20;;;;;;;;;;4993740;28;20173;-80
2020/12/24 03:28:41;;;;;;;21.40;14.33;;;;;;;;;;4992826;28;20185;-80
2020/12/24 03:31:06;;;;;;;20.80;15.17;;;;;;;;;;4993392;28;20170;-80
2020/12/24 03:33:31;;;;;;;17.87;14.03;;;;;;;;;;4993322;28;20532;-80
2020/12/24 03:35:57;;;;;;;16.50;13.37;;;;;;;;;;4993542;28;20244;-80
2020/12/24 03:38:22;;;;;;;18.33;13.80;;;;;;;;;;4993509;28;20308;-80
2020/12/24 03:40:47;;;;;;;17.37;13.37;;;;;;;;;;4993293;28;20174;-81
2020/12/24 03:43:13;;;;;;;19.70;15.33;;;;;;;;;;4993512;28;20174;-80
2020/12/24 03:45:38;;;;;;;30.37;24.27;;;;;;;;;;4993538;28;20224;-80
2020/12/24 03:48:03;;;;;;;31.23;19.67;;;;;;;;;;4993175;28;20182;-80
2020/12/24 03:50:29;;;;;;;20.93;16.57;;;;;;;;;;4993120;28;20253;-80
2020/12/24 03:52:54;;;;;;;35.90;26.97;;;;;;;;;;4993011;28;20177;-80
2020/12/24 03:55:19;;;;;;;19.90;15.17;;;;;;;;;;4993033;28;20261;-81
2020/12/24 03:57:45;;;;;;;39.33;28.93;;;;;;;;;;4993737;28;20202;-80
2020/12/24 04:00:10;;;;;;;46.07;33.83;;;;;;;;;;4993390;28;20233;-80
2020/12/24 04:02:35;;;;;;;23.20;17.70;;;;;;;;;;4992985;28;20684;-80
2020/12/24 04:05:01;;;;;;;43.87;33.57;;;;;;;;;;4992863;28;20216;-79
2020/12/24 04:07:26;;;;;;;24.20;17.60;;;;;;;;;;4993248;28;20180;-80
2020/12/24 04:09:51;;;;;;;41.00;28.10;;;;;;;;;;4993011;28;20304;-80
2020/12/24 04:12:17;;;;;;;39.93;27.80;;;;;;;;;;4993462;28;20534;-80
2020/12/24 04:14:42;;;;;;;53.37;41.33;;;;;;;;;;4993432;28;20192;-80
2020/12/24 04:17:07;;;;;;;26.90;21.27;;;;;;;;;;4992937;28;20687;-80
2020/12/24 04:19:33;;;;;;;27.80;23.80;;;;;;;;;;4992896;28;20459;-80
2020/12/24 04:21:58;;;;;;;38.43;33.03;;;;;;;;;;4992830;28;20190;-80
2020/12/24 04:24:23;;;;;;;19.40;16.97;;;;;;;;;;4993114;28;20174;-80
2020/12/24 04:26:49;;;;;;;19.97;16.57;;;;;;;;;;4993136;28;20169;-80
2020/12/24 04:29:14;;;;;;;18.30;15.17;;;;;;;;;;4992767;28;20172;-80
2020/12/24 04:31:40;;;;;;;18.77;16.63;;;;;;;;;;4992689;28;20252;-80
2020/12/24 04:34:05;;;;;;;20.07;16.47;;;;;;;;;;4993315;28;20182;-81
2020/12/24 04:36:31;;;;;;;22.97;18.50;;;;;;;;;;4992640;28;20170;-81
2020/12/24 04:38:56;;;;;;;17.83;15.10;;;;;;;;;;4993517;28;20167;-81
2020/12/24 04:41:21;;;;;;;26.13;21.63;;;;;;;;;;4996815;28;20165;-81
2020/12/24 04:43:47;;;;;;;22.63;18.90;;;;;;;;;;4996785;28;20197;-81
2020/12/24 04:46:13;;;;;;;25.70;20.90;;;;;;;;;;4996678;28;20198;-81
2020/12/24 04:48:39;;;;;;;29.33;24.50;;;;;;;;;;4996639;28;20170;-81
2020/12/24 04:51:05;;;;;;;35.23;29.50;;;;;;;;;;4996515;28;20181;-81
2020/12/24 04:53:30;;;;;;;25.10;19.00;;;;;;;;;;4996772;28;20253;-81
2020/12/24 04:55:56;;;;;;;27.30;20.47;;;;;;;;;;4996112;28;20308;-80
2020/12/24 04:58:22;;;;;;;38.47;26.83;;;;;;;;;;4996396;28;20198;-80
2020/12/24 05:00:47;;;;;;;49.87;32.53;;;;;;;;;;4996300;28;20279;-80
2020/12/24 05:03:15;;;;;;;58.57;35.90;;;;;;;;;;4995808;28;20236;-80
2020/12/24 05:05:43;;;;;;;73.30;41.93;;;;;;;;;;4995947;28;20584;-80
2020/12/24 05:08:08;;;;;;;76.07;44.57;;;;;;;;;;4996122;28;20174;-80
2020/12/24 05:10:35;;;;;;;83.50;46.20;;;;;;;;;;4996259;28;20178;-80
2020/12/24 05:13:14;;;;;;;54.23;34.63;;;;;;;;;;4995956;28;20174;-80
2020/12/24 05:15:39;;;;;;;56.17;34.17;;;;;;;;;;4995925;28;20185;-80
2020/12/24 05:18:15;;;;;;;46.30;30.03;;;;;;;;;;4995861;28;20226;-81
2020/12/24 05:20:41;;;;;;;40.33;27.23;;;;;;;;;;4996073;28;20178;-81
2020/12/24 05:23:13;;;;;;;32.70;24.30;;;;;;;;;;4996311;28;20174;-81
2020/12/24 05:25:39;;;;;;;30.83;21.83;;;;;;;;;;4995330;28;20696;-80
2020/12/24 05:28:04;;;;;;;25.10;20.03;;;;;;;;;;4995910;28;20269;-81
2020/12/24 05:30:31;;;;;;;26.63;21.40;;;;;;;;;;4995878;28;20520;-81
2020/12/24 05:32:56;;;;;;;27.37;21.23;;;;;;;;;;4996103;28;20257;-84
2020/12/24 05:35:23;;;;;;;28.97;22.20;;;;;;;;;;4995884;28;20261;-80
2020/12/24 05:37:50;;;;;;;27.40;21.90;;;;;;;;;;4995612;28;20243;-80
2020/12/24 05:40:16;;;;;;;27.93;21.63;;;;;;;;;;4995345;28;20182;-80
2020/12/24 05:42:48;;;;;;;34.73;28.17;;;;;;;;;;4995737;28;20174;-80
2020/12/24 05:45:17;;;;;;;31.50;24.40;;;;;;;;;;4995710;28;20166;-80
2020/12/24 05:47:43;;;;;;;23.27;19.43;;;;;;;;;;4995558;28;20181;-80
2020/12/24 05:50:24;;;;;;;24.10;20.23;;;;;;;;;;4995647;28;20193;-80
2020/12/24 05:53:09;;;;;;;24.10;19.13;;;;;;;;;;4995096;28;20170;-80
2020/12/24 05:55:35;;;;;;;26.80;20.43;;;;;;;;;;4995269;28;20200;-80
2020/12/24 05:58:00;;;;;;;23.63;20.27;;;;;;;;;;4995349;28;20229;-80
2020/12/24 06:00:33;;;;;;;23.70;19.43;;;;;;;;;;4995369;28;20280;-80
2020/12/24 06:03:11;;;;;;;24.03;18.43;;;;;;;;;;4995366;28;20189;-83
2020/12/24 06:05:46;;;;;;;20.73;17.00;;;;;;;;;;4995365;28;20647;-80
2020/12/24 06:08:16;;;;;;;19.13;16.63;;;;;;;;;;4995273;28;20281;-80
2020/12/24 06:10:45;;;;;;;21.07;18.23;;;;;;;;;;4994968;28;20185;-80
2020/12/24 06:13:15;;;;;;;20.03;16.20;;;;;;;;;;4994826;28;20166;-81
2020/12/24 06:15:43;;;;;;;20.37;15.87;;;;;;;;;;4994791;28;20170;-81
2020/12/24 06:18:10;;;;;;;21.37;16.03;;;;;;;;;;4994753;28;20656;-81
2020/12/24 06:20:36;;;;;;;20.87;16.07;;;;;;;;;;4995046;28;20166;-81
2020/12/24 06:23:03;;;;;;;18.63;16.17;;;;;;;;;;4994604;28;20170;-81
2020/12/24 06:25:28;;;;;;;19.57;16.73;;;;;;;;;;4995244;28;20174;-80
2020/12/24 06:27:55;;;;;;;18.97;16.83;;;;;;;;;;4994814;28;20549;-81
2020/12/24 06:30:26;;;;;;;17.33;15.07;;;;;;;;;;4994511;28;20181;-80
2020/12/24 06:32:53;;;;;;;16.13;12.87;;;;;;;;;;4994437;28;20230;-80
2020/12/24 06:35:34;;;;;;;17.37;14.43;;;;;;;;;;4994718;28;20162;-81
2020/12/24 06:37:59;;;;;;;17.43;13.37;;;;;;;;;;4994568;28;20200;-80
2020/12/24 06:40:38;;;;;;;18.43;14.87;;;;;;;;;;4994334;28;20170;-81
2020/12/24 06:43:04;;;;;;;19.27;16.10;;;;;;;;;;4994471;28;20190;-80
2020/12/24 06:45:30;;;;;;;22.80;17.97;;;;;;;;;;4994922;28;20205;-80
2020/12/24 06:48:10;;;;;;;22.47;16.83;;;;;;;;;;4994167;28;20291;-81
2020/12/24 06:50:37;;;;;;;20.03;15.77;;;;;;;;;;4993959;28;20648;-81
2020/12/24 06:53:18;;;;;;;21.63;17.43;;;;;;;;;;4994289;28;20252;-80
2020/12/24 06:55:44;;;;;;;21.50;18.10;;;;;;;;;;4993981;28;20169;-80
2020/12/24 06:58:29;;;;;;;22.57;19.37;;;;;;;;;;4994001;28;20482;-80
2020/12/24 07:01:00;;;;;;;18.00;15.90;;;;;;;;;;4993829;28;20235;-80
2020/12/24 07:03:26;;;;;;;23.33;17.23;;;;;;;;;;4994039;28;20610;-80
2020/12/24 07:05:51;;;;;;;22.30;16.97;;;;;;;;;;4993832;28;20166;-80
2020/12/24 07:08:35;;;;;;;18.90;16.17;;;;;;;;;;4993687;28;20182;-80
2020/12/24 07:11:01;;;;;;;19.93;14.67;;;;;;;;;;4994280;28;20201;-80
2020/12/24 07:13:36;;;;;;;16.87;13.73;;;;;;;;;;4993715;28;20648;-80
2020/12/24 07:16:05;;;;;;;17.93;13.77;;;;;;;;;;4994443;28;20253;-80
2020/12/24 07:18:32;;;;;;;16.80;13.47;;;;;;;;;;4994081;28;20231;-80
2020/12/24 07:21:01;;;;;;;23.20;15.83;;;;;;;;;;4993615;28;20580;-80
2020/12/24 07:23:28;;;;;;;21.23;15.73;;;;;;;;;;4993806;28;20260;-80
2020/12/24 07:25:53;;;;;;;20.87;15.23;;;;;;;;;;4993449;28;20209;-80
2020/12/24 07:28:19;;;;;;;16.33;13.33;;;;;;;;;;4993339;28;20182;-81
2020/12/24 07:30:54;;;;;;;18.37;14.83;;;;;;;;;;4993379;28;20216;-80
2020/12/24 07:33:19;;;;;;;17.73;12.67;;;;;;;;;;4993740;28;20580;-80
2020/12/24 07:35:45;;;;;;;19.00;14.60;;;;;;;;;;4992699;28;20193;-80
2020/12/24 07:38:10;;;;;;;16.90;13.50;;;;;;;;;;4993685;28;20202;-81
2020/12/24 07:40:35;;;;;;;19.30;14.20;;;;;;;;;;4993852;28;20656;-81
2020/12/24 07:43:08;;;;;;;20.03;14.67;;;;;;;;;;4993531;28;20509;-81
2020/12/24 07:45:33;;;;;;;20.77;14.83;;;;;;;;;;4993574;28;20209;-81
2020/12/24 07:47:58;;;;;;;19.43;14.83;;;;;;;;;;4993202;28;20220;-81
2020/12/24 07:50:30;;;;;;;18.13;14.53;;;;;;;;;;4993174;28;20177;-81
2020/12/24 07:52:56;;;;;;;21.97;16.53;;;;;;;;;;4993410;28;20220;-81
2020/12/24 07:55:21;;;;;;;21.07;16.83;;;;;;;;;;4993165;28;20564;-81
2020/12/24 07:57:46;;;;;;;19.77;17.10;;;;;;;;;;4993210;28;20293;-81
2020/12/24 08:00:12;;;;;;;17.43;15.03;;;;;;;;;;4993332;28;20672;-81
2020/12/24 08:02:37;;;;;;;17.57;15.33;;;;;;;;;;4993443;28;20193;-81
2020/12/24 08:05:02;;;;;;;18.93;15.97;;;;;;;;;;4992850;28;20190;-81
2020/12/24 08:07:28;;;;;;;18.03;14.00;;;;;;;;;;4993465;28;20193;-81
2020/12/24 08:09:53;;;;;;;18.60;14.30;;;;;;;;;;4992986;28;20510;-81
2020/12/24 08:12:19;;;;;;;16.57;13.60;;;;;;;;;;4993322;28;20522;-81
2020/12/24 08:14:44;;;;;;;19.37;14.07;;;;;;;;;;4994714;28;20597;-81
2020/12/24 08:17:27;;;;;;;16.27;13.60;;;;;;;;;;4996810;28;20745;-84
2020/12/24 08:20:10;;;;;;;16.17;14.33;;;;;;;;;;4996949;28;20162;-80
2020/12/24 08:22:50;;;;;;;22.50;16.67;;;;;;;;;;4997256;28;20169;-81
2020/12/24 08:25:16;;;;;;;15.10;11.87;;;;;;;;;;4996805;28;20504;-81
2020/12/24 08:27:42;;;;;;;14.93;12.50;;;;;;;;;;4997086;28;20169;-80
2020/12/24 08:30:08;;;;;;;16.10;14.30;;;;;;;;;;4997249;28;20180;-80
2020/12/24 08:32:34;;;;;;;21.60;17.00;;;;;;;;;;4997245;28;20517;-81
2020/12/24 08:35:09;;;;;;;18.10;14.93;;;;;;;;;;4995634;28;20631;-82
2020/12/24 08:37:34;;;;;;;18.43;14.10;;;;;;;;;;5002966;28;20633;-80
2020/12/24 08:40:00;;;;;;;17.27;13.13;;;;;;;;;;5016381;28;20177;-80
2020/12/24 08:42:28;;;;;;;17.97;13.93;;;;;;;;;;5016327;28;20204;-80
2020/12/24 08:44:54;;;;;;;14.37;12.87;;;;;;;;;;5016349;28;20532;-80
2020/12/24 08:47:20;;;;;;;14.07;12.00;;;;;;;;;;5016006;28;20173;-81
2020/12/24 08:49:46;;;;;;;16.10;13.57;;;;;;;;;;5016245;28;20165;-81
2020/12/24 08:52:14;;;;;;;14.80;12.57;;;;;;;;;;5016297;28;20173;-81
2020/12/24 08:54:55;;;;;;;16.30;13.37;;;;;;;;;;5016351;28;20260;-81
2020/12/24 08:57:20;;;;;;;13.87;11.57;;;;;;;;;;4997125;28;20244;-81
2020/12/24 08:59:52;;;;;;;16.57;12.23;;;;;;;;;;4995696;28;20197;-81
2020/12/24 09:02:24;;;;;;;15.17;12.20;;;;;;;;;;4994694;28;20256;-80
2020/12/24 09:04:53;;;;;;;17.60;12.60;;;;;;;;;;4994013;28;20200;-80
2020/12/24 09:07:24;;;;;;;13.40;11.67;;;;;;;;;;4994975;28;20169;-81
2020/12/24 09:10:00;;;;;;;13.60;10.70;;;;;;;;;;4991940;28;20166;-80
2020/12/24 09:12:26;;;;;;;11.50;10.30;;;;;;;;;;4994123;28;20208;-81
2020/12/24 09:14:57;;;;;;;12.33;10.90;;;;;;;;;;4994629;28;20202;-81
2020/12/24 09:17:23;;;;;;;11.30;9.73;;;;;;;;;;4995348;28;20526;-80
2020/12/24 09:19:59;;;;;;;11.93;10.40;;;;;;;;;;4995835;28;20177;-80
2020/12/24 09:22:24;;;;;;;16.13;11.73;;;;;;;;;;4992939;28;20180;-81
2020/12/24 09:24:49;;;;;;;14.30;11.53;;;;;;;;;;4993827;28;20166;-80
2020/12/24 09:27:15;;;;;;;17.80;12.53;;;;;;;;;;4991461;28;20225;-80
2020/12/24 09:29:40;;;;;;;20.33;14.43;;;;;;;;;;4992473;28;20192;-80
2020/12/24 09:32:05;;;;;;;17.37;12.97;;;;;;;;;;4994026;28;20170;-80
2020/12/24 09:34:31;;;;;;;15.27;11.20;;;;;;;;;;4993807;28;20206;-80
2020/12/24 09:36:56;;;;;;;17.63;11.30;;;;;;;;;;4993913;28;20174;-81
2020/12/24 09:39:22;;;;;;;12.37;10.87;;;;;;;;;;4993863;28;20169;-81
2020/12/24 09:41:48;;;;;;;10.70;9.57;;;;;;;;;;4993579;28;20166;-81
2020/12/24 09:44:13;;;;;;;12.03;9.60;;;;;;;;;;4993704;28;20177;-82
2020/12/24 09:46:39;;;;;;;12.80;10.80;;;;;;;;;;4993538;28;20923;-81
2020/12/24 09:49:05;;;;;;;13.20;11.30;;;;;;;;;;4993738;28;20264;-81
2020/12/24 09:51:31;;;;;;;12.83;11.30;;;;;;;;;;4993616;28;20165;-81
2020/12/24 09:53:57;;;;;;;12.23;10.63;;;;;;;;;;4993874;28;20174;-80
2020/12/24 09:56:22;;;;;;;13.07;11.40;;;;;;;;;;4994029;28;20166;-80
2020/12/24 09:58:47;;;;;;;12.60;10.37;;;;;;;;;;4994619;28;20205;-81
2020/12/24 10:01:15;;;;;;;15.57;13.33;;;;;;;;;;4993674;28;20312;-80
2020/12/24 10:03:40;;;;;;;14.90;11.50;;;;;;;;;;4993117;28;20190;-81
2020/12/24 10:06:05;;;;;;;14.53;11.33;;;;;;;;;;4993162;28;20170;-81
2020/12/24 10:08:31;;;;;;;17.60;12.13;;;;;;;;;;4993100;28;20590;-81
2020/12/24 10:10:56;;;;;;;20.10;13.87;;;;;;;;;;4993075;28;20174;-81
2020/12/24 10:13:21;;;;;;;17.87;14.10;;;;;;;;;;4993587;28;20169;-80
2020/12/24 10:15:47;;;;;;;15.73;12.90;;;;;;;;;;4995072;28;20343;-86
2020/12/24 10:18:12;;;;;;;17.70;14.83;;;;;;;;;;4995253;28;20554;-83
2020/12/24 10:20:37;;;;;;;16.53;13.80;;;;;;;;;;4994722;28;20174;-83
2020/12/24 10:23:03;;;;;;;18.63;14.47;;;;;;;;;;4994700;28;20181;-83
2020/12/24 10:25:28;;;;;;;21.37;15.77;;;;;;;;;;4994623;28;20166;-83
2020/12/24 10:27:53;;;;;;;17.50;14.20;;;;;;;;;;4994673;28;20265;-82
2020/12/24 10:30:19;;;;;;;17.83;13.47;;;;;;;;;;4994754;28;20622;-84
2020/12/24 10:32:44;;;;;;;14.93;13.00;;;;;;;;;;4994710;28;20237;-83
2020/12/24 10:35:09;;;;;;;16.30;13.37;;;;;;;;;;4995012;28;20193;-82
2020/12/24 10:37:35;;;;;;;17.70;14.67;;;;;;;;;;4993284;28;20627;-83
2020/12/24 10:40:00;;;;;;;19.10;14.40;;;;;;;;;;4992926;28;20170;-83
2020/12/24 10:42:25;;;;;;;19.47;14.30;;;;;;;;;;4992838;28;20608;-83
2020/12/24 10:44:51;;;;;;;17.53;13.87;;;;;;;;;;4992742;28;20184;-84
2020/12/24 10:47:16;;;;;;;17.40;14.63;;;;;;;;;;4993103;28;20174;-83
2020/12/24 10:49:43;;;;;;;18.77;14.93;;;;;;;;;;4992656;28;20178;-83
2020/12/24 10:52:12;;;;;;;13.47;11.80;;;;;;;;;;4992571;28;20177;-83
2020/12/24 10:54:37;;;;;;;14.73;12.60;;;;;;;;;;4992570;28;20173;-84
2020/12/24 10:57:02;;;;;;;20.27;14.50;;;;;;;;;;4984651;28;20170;-84
2020/12/24 10:59:28;;;;;;;22.20;15.30;;;;;;;;;;4993261;28;20166;-82
2020/12/24 11:01:53;;;;;;;24.60;15.93;;;;;;;;;;4994398;28;20225;-83
2020/12/24 11:04:20;;;;;;;20.63;14.60;;;;;;;;;;4992920;28;20208;-83
2020/12/24 11:06:45;;;;;;;14.93;11.87;;;;;;;;;;4994249;28;20169;-83
2020/12/24 11:09:11;;;;;;;14.50;11.93;;;;;;;;;;4992710;28;20273;-83
2020/12/24 11:11:37;;;;;;;13.03;10.90;;;;;;;;;;4992077;28;20169;-83
2020/12/24 11:14:03;;;;;;;14.70;12.03;;;;;;;;;;4992358;28;20180;-83
2020/12/24 11:16:28;;;;;;;14.23;12.20;;;;;;;;;;4973495;28;20209;-83
2020/12/24 11:18:53;;;;;;;15.07;12.23;;;;;;;;;;4990220;28;20214;-83
2020/12/24 11:21:20;;;;;;;13.47;11.10;;;;;;;;;;4990820;28;20185;-84
2020/12/24 11:23:46;;;;;;;14.43;11.97;;;;;;;;;;4992822;28;20193;-84
2020/12/24 11:26:11;;;;;;;16.70;12.93;;;;;;;;;;4992471;28;20197;-85
2020/12/24 11:28:37;;;;;;;15.27;12.10;;;;;;;;;;4991911;28;20173;-84
2020/12/24 11:31:02;;;;;;;14.80;11.73;;;;;;;;;;4992039;28;20180;-84
2020/12/24 11:33:27;;;;;;;13.23;10.23;;;;;;;;;;4991839;28;20260;-84
2020/12/24 11:35:53;;;;;;;15.40;11.30;;;;;;;;;;4991540;28;20633;-85
2020/12/24 11:38:18;;;;;;;15.43;11.00;;;;;;;;;;4991882;28;20210;-84
2020/12/24 11:40:43;;;;;;;15.17;11.83;;;;;;;;;;4991024;28;20185;-83
2020/12/24 11:43:09;;;;;;;16.17;12.67;;;;;;;;;;4991452;28;20178;-83
2020/12/24 11:45:34;;;;;;;14.00;11.70;;;;;;;;;;4993161;28;20204;-84
2020/12/24 11:48:00;;;;;;;15.43;11.90;;;;;;;;;;4992853;28;20312;-85
2020/12/24 11:50:25;;;;;;;13.50;10.70;;;;;;;;;;4973691;28;20174;-84
2020/12/24 11:52:50;;;;;;;16.80;12.03;;;;;;;;;;4992007;28;20536;-85
2020/12/24 11:55:16;;;;;;;17.53;12.37;;;;;;;;;;4991621;28;20173;-85
2020/12/24 11:57:41;;;;;;;14.93;11.20;;;;;;;;;;4988880;28;20205;-85
2020/12/24 12:00:07;;;;;;;18.10;12.10;;;;;;;;;;4990128;28;20279;-86
2020/12/24 12:02:33;;;;;;;15.20;10.57;;;;;;;;;;4986787;28;20281;-84
2020/12/24 12:04:58;;;;;;;12.57;8.70;;;;;;;;;;4990466;28;20768;-83
2020/12/24 12:07:23;;;;;;;12.20;9.77;;;;;;;;;;4990390;28;20175;-84
2020/12/24 12:09:49;;;;;;;13.97;10.43;;;;;;;;;;4987622;28;20293;-84
2020/12/24 12:12:14;;;;;;;20.40;12.13;;;;;;;;;;4989126;28;21066;-84
2020/12/24 12:14:39;;;;;;;19.10;12.03;;;;;;;;;;4991294;28;20174;-84
2020/12/24 12:17:05;;;;;;;21.57;12.47;;;;;;;;;;4991849;28;20177;-82
2020/12/24 12:19:30;;;;;;;14.03;10.83;;;;;;;;;;4992942;28;20173;-83
2020/12/24 12:21:56;;;;;;;10.60;8.77;;;;;;;;;;4990918;28;20181;-84
2020/12/24 12:24:21;;;;;;;12.07;9.57;;;;;;;;;;4993325;28;20180;-83
2020/12/24 12:26:47;;;;;;;13.10;9.70;;;;;;;;;;4993989;28;20577;-83
2020/12/24 12:29:12;;;;;;;13.40;10.70;;;;;;;;;;4994040;28;20172;-84
2020/12/24 12:31:37;;;;;;;12.43;10.33;;;;;;;;;;4994080;28;20169;-84
2020/12/24 12:34:03;;;;;;;11.93;10.67;;;;;;;;;;4994566;28;20209;-84
2020/12/24 12:36:28;;;;;;;15.10;10.57;;;;;;;;;;4992891;28;20166;-84
2020/12/24 12:38:54;;;;;;;13.57;10.43;;;;;;;;;;4992579;28;20674;-84
2020/12/24 12:41:21;;;;;;;16.03;10.90;;;;;;;;;;4992108;28;20174;-85
2020/12/24 12:43:46;;;;;;;13.93;10.47;;;;;;;;;;4992499;28;20167;-85
2020/12/24 12:46:16;;;;;;;13.70;11.17;;;;;;;;;;4974861;28;20179;-85
2020/12/24 12:48:42;;;;;;;15.57;10.97;;;;;;;;;;4992754;28;20170;-84
2020/12/24 12:51:08;;;;;;;15.17;11.40;;;;;;;;;;4992225;28;20178;-85
2020/12/24 12:53:33;;;;;;;12.67;10.17;;;;;;;;;;4992281;28;20208;-84
2020/12/24 12:55:59;;;;;;;12.33;10.67;;;;;;;;;;4998608;28;20185;-84
2020/12/24 12:58:24;;;;;;;14.27;11.50;;;;;;;;;;4996547;28;20296;-83
2020/12/24 13:00:49;;;;;;;18.13;12.17;;;;;;;;;;4992889;28;20320;-84
2020/12/24 13:03:15;;;;;;;16.63;12.20;;;;;;;;;;4995783;28;20181;-83
2020/12/24 13:05:40;;;;;;;15.83;12.47;;;;;;;;;;4996080;28;20185;-84
2020/12/24 13:08:06;;;;;;;17.47;12.93;;;;;;;;;;4978676;28;20193;-84
2020/12/24 13:10:31;;;;;;;14.77;11.83;;;;;;;;;;4996227;28;20170;-85
2020/12/24 13:12:56;;;;;;;13.30;11.47;;;;;;;;;;4996413;28;20170;-84
2020/12/24 13:15:22;;;;;;;14.83;11.50;;;;;;;;;;4996401;28;20228;-84
2020/12/24 13:17:47;;;;;;;15.40;12.40;;;;;;;;;;4995846;28;20628;-84
2020/12/24 13:20:12;;;;;;;13.37;10.60;;;;;;;;;;4995792;28;20174;-85
2020/12/24 13:22:38;;;;;;;14.33;11.30;;;;;;;;;;4995697;28;20174;-85
2020/12/24 13:25:04;;;;;;;15.27;11.60;;;;;;;;;;4995967;28;20174;-85
2020/12/24 13:27:30;;;;;;;15.20;11.70;;;;;;;;;;4995773;28;20182;-84
2020/12/24 13:29:55;;;;;;;16.77;12.87;;;;;;;;;;4995568;28;20174;-84
2020/12/24 13:32:21;;;;;;;18.37;13.23;;;;;;;;;;4995430;28;20220;-83
2020/12/24 13:34:46;;;;;;;20.37;13.93;;;;;;;;;;4995268;28;20224;-82
2020/12/24 13:37:12;;;;;;;18.43;13.97;;;;;;;;;;4995244;28;20224;-83
2020/12/24 13:39:38;;;;;;;17.53;13.53;;;;;;;;;;4995317;28;20544;-83
2020/12/24 13:42:03;;;;;;;17.23;13.10;;;;;;;;;;4995249;28;20178;-84
2020/12/24 13:44:28;;;;;;;14.90;11.03;;;;;;;;;;4995184;28;20173;-83
2020/12/24 13:46:54;;;;;;;19.30;13.90;;;;;;;;;;4995396;28;20181;-83
2020/12/24 13:49:20;;;;;;;16.40;11.43;;;;;;;;;;4995381;28;20617;-84
2020/12/24 13:51:49;;;;;;;15.30;11.63;;;;;;;;;;4995223;28;20604;-84
2020/12/24 13:54:14;;;;;;;17.20;13.77;;;;;;;;;;4995473;28;20182;-84
2020/12/24 13:56:39;;;;;;;20.13;16.13;;;;;;;;;;4994864;28;20173;-83
2020/12/24 13:59:05;;;;;;;21.57;18.27;;;;;;;;;;4994292;28;20214;-83
2020/12/24 14:01:30;;;;;;;20.10;15.47;;;;;;;;;;4993585;28;20256;-83
2020/12/24 14:03:55;;;;;;;19.60;15.10;;;;;;;;;;4994116;28;20238;-83
2020/12/24 14:06:21;;;;;;;20.40;15.20;;;;;;;;;;4994764;28;20531;-84
2020/12/24 14:08:46;;;;;;;19.20;14.40;;;;;;;;;;4994668;28;20181;-84
2020/12/24 14:11:16;;;;;;;16.37;13.33;;;;;;;;;;4994643;28;20643;-85
2020/12/24 14:13:41;;;;;;;20.17;15.50;;;;;;;;;;4994421;28;20166;-83